Terminal Aerodrome Forecast
Issued by NWS

Home | Current Version | Previous Version | Text Only | Print | Product List | Glossary On
Versions: 1 2 3 4 5 6 7 8 9 10 11 12 13
000
FTUS45 KABQ 220500 RRA
TAFAEG
TAF
KAEG 220544Z 2206/2306 11011KT P6SM BKN100
      TEMPO 2211/2214 BKN030
     FM221900 15007KT P6SM BKN050
     FM222100 17009KT P6SM VCTS BKN045CB
     FM230100 15010KT P6SM VCSH BKN050=

USA.gov is the U.S. government's official web portal to all federal, state and local government web resources and services.